Josephville, Missouri
Current Conditions -  °F | °C
As of 11:56 AM on Wednesday 26 Nov 2014 (Local Time) from KSUS Reporting Station
Light Snow Light Snow  
Wind Chill: 34°   Ceiling: 1000
Heat Index: 34°   Visibility: 0.75mi
Dew Point: 30°   Wind: 3mph
Humidity: 87%   Direction: 130°SE
Pressure: 29.98"   Gusts: NA
Location:  38.7993°N, 90.8471°W
Report Text: KSUS 261756Z 13003KT 3/4SM R08R/4500V6000FT -SN BR OVC010 01/M01 A2998 RMK AO2 P0000
Loading
Personal Weather Stations






























Interactive Weather Map New forecast layout! Learn more

10-Day Weather Forecast

Advertisements
Track Severe Weather on mobile